sensor_id;sensor_type;location;lat;lon;timestamp;P1;durP1;ratioP1;P2;durP2;ratioP2
10661;SDS011;5379;51.034;7.006;2023-01-28T00:00:47;2.57;;;2.37;;
10661;SDS011;5379;51.034;7.006;2023-01-28T00:03:15;2.13;;;2.03;;
10661;SDS011;5379;51.034;7.006;2023-01-28T00:05:42;2.37;;;2.27;;
10661;SDS011;5379;51.034;7.006;2023-01-28T00:08:11;2.10;;;2.00;;
10661;SDS011;5379;51.034;7.006;2023-01-28T00:10:39;2.23;;;2.13;;
10661;SDS011;5379;51.034;7.006;2023-01-28T00:13:07;2.67;;;2.57;;
10661;SDS011;5379;51.034;7.006;2023-01-28T00:15:35;3.37;;;2.27;;
10661;SDS011;5379;51.034;7.006;2023-01-28T00:18:03;2.57;;;2.37;;
10661;SDS011;5379;51.034;7.006;2023-01-28T00:20:30;2.60;;;2.40;;
10661;SDS011;5379;51.034;7.006;2023-01-28T00:22:57;2.40;;;2.23;;
10661;SDS011;5379;51.034;7.006;2023-01-28T00:25:25;3.70;;;2.60;;
10661;SDS011;5379;51.034;7.006;2023-01-28T00:27:52;2.17;;;2.00;;
10661;SDS011;5379;51.034;7.006;2023-01-28T00:30:19;3.63;;;2.50;;
10661;SDS011;5379;51.034;7.006;2023-01-28T00:32:46;2.60;;;2.40;;
10661;SDS011;5379;51.034;7.006;2023-01-28T00:35:13;2.40;;;2.30;;
10661;SDS011;5379;51.034;7.006;2023-01-28T00:37:40;2.10;;;2.00;;
10661;SDS011;5379;51.034;7.006;2023-01-28T00:40:10;2.57;;;2.40;;
10661;SDS011;5379;51.034;7.006;2023-01-28T00:42:39;3.00;;;2.70;;
10661;SDS011;5379;51.034;7.006;2023-01-28T00:45:07;4.47;;;4.03;;
10661;SDS011;5379;51.034;7.006;2023-01-28T00:47:34;6.23;;;4.90;;
10661;SDS011;5379;51.034;7.006;2023-01-28T00:50:01;5.97;;;5.37;;
10661;SDS011;5379;51.034;7.006;2023-01-28T00:52:29;5.07;;;4.67;;
10661;SDS011;5379;51.034;7.006;2023-01-28T00:54:56;5.97;;;3.93;;
10661;SDS011;5379;51.034;7.006;2023-01-28T00:57:23;3.67;;;3.37;;
10661;SDS011;5379;51.034;7.006;2023-01-28T00:59:51;3.37;;;3.13;;
10661;SDS011;5379;51.034;7.006;2023-01-28T05:30:56;4.90;;;4.50;;
10661;SDS011;5379;51.034;7.006;2023-01-28T05:33:28;4.53;;;4.13;;
10661;SDS011;5379;51.034;7.006;2023-01-28T05:35:55;5.20;;;4.67;;
10661;SDS011;5379;51.034;7.006;2023-01-28T05:38:22;5.50;;;4.03;;
10661;SDS011;5379;51.034;7.006;2023-01-28T05:40:50;6.97;;;4.33;;
10661;SDS011;5379;51.034;7.006;2023-01-28T05:43:17;8.37;;;4.30;;
10661;SDS011;5379;51.034;7.006;2023-01-28T05:45:44;4.00;;;3.70;;
10661;SDS011;5379;51.034;7.006;2023-01-28T05:48:14;4.70;;;3.67;;
10661;SDS011;5379;51.034;7.006;2023-01-28T05:50:41;4.57;;;4.17;;
10661;SDS011;5379;51.034;7.006;2023-01-28T05:53:08;7.60;;;4.10;;
10661;SDS011;5379;51.034;7.006;2023-01-28T05:55:35;5.10;;;4.50;;
10661;SDS011;5379;51.034;7.006;2023-01-28T05:58:02;4.30;;;4.00;;
10661;SDS011;5379;51.034;7.006;2023-01-28T06:00:29;4.30;;;3.90;;
10661;SDS011;5379;51.034;7.006;2023-01-28T06:02:56;4.33;;;3.93;;
10661;SDS011;5379;51.034;7.006;2023-01-28T06:05:24;9.00;;;4.13;;
10661;SDS011;5379;51.034;7.006;2023-01-28T06:07:51;6.37;;;4.50;;
10661;SDS011;5379;51.034;7.006;2023-01-28T06:10:18;11.67;;;4.37;;
10661;SDS011;5379;51.034;7.006;2023-01-28T06:12:45;4.30;;;3.90;;
10661;SDS011;5379;51.034;7.006;2023-01-28T06:15:12;5.37;;;4.30;;
10661;SDS011;5379;51.034;7.006;2023-01-28T06:17:39;6.60;;;4.00;;
10661;SDS011;5379;51.034;7.006;2023-01-28T06:20:06;10.27;;;4.17;;
10661;SDS011;5379;51.034;7.006;2023-01-28T06:22:35;5.80;;;3.37;;
10661;SDS011;5379;51.034;7.006;2023-01-28T06:25:03;9.13;;;3.90;;
10661;SDS011;5379;51.034;7.006;2023-01-28T06:27:30;2.87;;;2.77;;
10661;SDS011;5379;51.034;7.006;2023-01-28T06:29:57;4.33;;;3.93;;
10661;SDS011;5379;51.034;7.006;2023-01-28T06:32:24;8.40;;;3.47;;
10661;SDS011;5379;51.034;7.006;2023-01-28T06:34:51;7.73;;;4.33;;
10661;SDS011;5379;51.034;7.006;2023-01-28T06:37:18;5.33;;;3.63;;
10661;SDS011;5379;51.034;7.006;2023-01-28T06:39:47;4.73;;;4.13;;
10661;SDS011;5379;51.034;7.006;2023-01-28T06:42:13;5.20;;;4.03;;
10661;SDS011;5379;51.034;7.006;2023-01-28T06:44:40;4.27;;;3.77;;
10661;SDS011;5379;51.034;7.006;2023-01-28T06:47:07;4.97;;;4.50;;
10661;SDS011;5379;51.034;7.006;2023-01-28T06:49:35;8.87;;;4.27;;
10661;SDS011;5379;51.034;7.006;2023-01-28T06:52:02;5.77;;;3.73;;
10661;SDS011;5379;51.034;7.006;2023-01-28T06:54:29;4.00;;;3.70;;
10661;SDS011;5379;51.034;7.006;2023-01-28T06:56:57;4.63;;;3.87;;
10661;SDS011;5379;51.034;7.006;2023-01-28T06:59:24;3.80;;;3.50;;
10661;SDS011;5379;51.034;7.006;2023-01-28T07:01:51;6.83;;;4.00;;
10661;SDS011;5379;51.034;7.006;2023-01-28T07:04:18;4.37;;;3.97;;
10661;SDS011;5379;51.034;7.006;2023-01-28T07:06:45;7.33;;;4.20;;
10661;SDS011;5379;51.034;7.006;2023-01-28T07:09:12;5.97;;;5.27;;
10661;SDS011;5379;51.034;7.006;2023-01-28T07:11:39;5.20;;;4.80;;
10661;SDS011;5379;51.034;7.006;2023-01-28T07:14:07;10.77;;;5.03;;
10661;SDS011;5379;51.034;7.006;2023-01-28T07:16:34;5.70;;;5.17;;
10661;SDS011;5379;51.034;7.006;2023-01-28T07:19:01;5.50;;;4.97;;
10661;SDS011;5379;51.034;7.006;2023-01-28T07:21:29;9.27;;;6.03;;
10661;SDS011;5379;51.034;7.006;2023-01-28T07:23:56;5.40;;;5.00;;
10661;SDS011;5379;51.034;7.006;2023-01-28T07:26:23;10.13;;;6.03;;
10661;SDS011;5379;51.034;7.006;2023-01-28T07:28:50;6.13;;;5.53;;
10661;SDS011;5379;51.034;7.006;2023-01-28T07:31:18;6.50;;;5.10;;
10661;SDS011;5379;51.034;7.006;2023-01-28T07:33:45;7.63;;;5.97;;
10661;SDS011;5379;51.034;7.006;2023-01-28T07:36:12;11.47;;;6.33;;
10661;SDS011;5379;51.034;7.006;2023-01-28T07:38:39;7.13;;;5.27;;
10661;SDS011;5379;51.034;7.006;2023-01-28T07:41:06;5.47;;;5.00;;
10661;SDS011;5379;51.034;7.006;2023-01-28T07:43:33;5.87;;;5.27;;
10661;SDS011;5379;51.034;7.006;2023-01-28T07:46:00;5.57;;;5.07;;
10661;SDS011;5379;51.034;7.006;2023-01-28T07:48:29;6.63;;;5.37;;
10661;SDS011;5379;51.034;7.006;2023-01-28T07:50:57;5.73;;;5.20;;
10661;SDS011;5379;51.034;7.006;2023-01-28T07:53:24;6.07;;;4.93;;
10661;SDS011;5379;51.034;7.006;2023-01-28T07:55:51;5.40;;;4.90;;
10661;SDS011;5379;51.034;7.006;2023-01-28T07:58:23;5.20;;;4.80;;
10661;SDS011;5379;51.034;7.006;2023-01-28T08:00:50;6.53;;;5.40;;
10661;SDS011;5379;51.034;7.006;2023-01-28T08:03:21;10.93;;;4.83;;
10661;SDS011;5379;51.034;7.006;2023-01-28T08:05:50;8.80;;;5.37;;
10661;SDS011;5379;51.034;7.006;2023-01-28T08:08:19;5.57;;;4.63;;
10661;SDS011;5379;51.034;7.006;2023-01-28T08:10:46;5.00;;;4.60;;
10661;SDS011;5379;51.034;7.006;2023-01-28T08:13:14;7.97;;;5.03;;
10661;SDS011;5379;51.034;7.006;2023-01-28T08:15:42;7.20;;;5.03;;
10661;SDS011;5379;51.034;7.006;2023-01-28T08:18:10;4.73;;;4.40;;
10661;SDS011;5379;51.034;7.006;2023-01-28T08:20:38;8.43;;;4.63;;
10661;SDS011;5379;51.034;7.006;2023-01-28T08:23:07;6.30;;;4.23;;
10661;SDS011;5379;51.034;7.006;2023-01-28T08:25:36;7.97;;;3.97;;
10661;SDS011;5379;51.034;7.006;2023-01-28T08:28:03;4.37;;;3.87;;
10661;SDS011;5379;51.034;7.006;2023-01-28T08:30:31;5.70;;;5.10;;
10661;SDS011;5379;51.034;7.006;2023-01-28T08:32:59;4.10;;;3.80;;
10661;SDS011;5379;51.034;7.006;2023-01-28T08:35:27;5.50;;;4.80;;
10661;SDS011;5379;51.034;7.006;2023-01-28T08:37:54;4.50;;;4.20;;
10661;SDS011;5379;51.034;7.006;2023-01-28T08:40:25;6.83;;;4.60;;
10661;SDS011;5379;51.034;7.006;2023-01-28T08:42:53;8.20;;;5.27;;
10661;SDS011;5379;51.034;7.006;2023-01-28T08:45:21;23.10;;;5.57;;
10661;SDS011;5379;51.034;7.006;2023-01-28T08:47:50;4.87;;;4.30;;
10661;SDS011;5379;51.034;7.006;2023-01-28T08:50:18;17.07;;;4.53;;
10661;SDS011;5379;51.034;7.006;2023-01-28T08:52:46;4.53;;;4.07;;
10661;SDS011;5379;51.034;7.006;2023-01-28T08:55:14;5.03;;;3.93;;
10661;SDS011;5379;51.034;7.006;2023-01-28T08:57:44;4.00;;;3.67;;
10661;SDS011;5379;51.034;7.006;2023-01-28T09:00:11;3.80;;;3.50;;
10661;SDS011;5379;51.034;7.006;2023-01-28T09:02:39;6.27;;;4.03;;
10661;SDS011;5379;51.034;7.006;2023-01-28T09:05:07;7.07;;;4.67;;
10661;SDS011;5379;51.034;7.006;2023-01-28T09:07:35;3.50;;;3.20;;
10661;SDS011;5379;51.034;7.006;2023-01-28T09:10:03;9.87;;;4.17;;
10661;SDS011;5379;51.034;7.006;2023-01-28T09:12:31;5.23;;;3.47;;
10661;SDS011;5379;51.034;7.006;2023-01-28T09:14:59;4.77;;;4.00;;
10661;SDS011;5379;51.034;7.006;2023-01-28T09:17:26;6.90;;;3.93;;
10661;SDS011;5379;51.034;7.006;2023-01-28T09:19:53;5.93;;;3.70;;
10661;SDS011;5379;51.034;7.006;2023-01-28T09:22:20;8.57;;;3.63;;
10661;SDS011;5379;51.034;7.006;2023-01-28T09:24:47;5.67;;;4.40;;
10661;SDS011;5379;51.034;7.006;2023-01-28T09:27:15;4.83;;;3.90;;
10661;SDS011;5379;51.034;7.006;2023-01-28T09:29:42;4.53;;;4.13;;
10661;SDS011;5379;51.034;7.006;2023-01-28T09:32:11;11.50;;;4.77;;
10661;SDS011;5379;51.034;7.006;2023-01-28T09:34:38;7.40;;;4.77;;
10661;SDS011;5379;51.034;7.006;2023-01-28T09:37:05;5.63;;;4.53;;
10661;SDS011;5379;51.034;7.006;2023-01-28T09:39:32;5.10;;;4.60;;
10661;SDS011;5379;51.034;7.006;2023-01-28T09:42:03;20.80;;;4.97;;
10661;SDS011;5379;51.034;7.006;2023-01-28T09:44:51;5.87;;;5.47;;
10661;SDS011;5379;51.034;7.006;2023-01-28T09:47:27;8.57;;;6.67;;
10661;SDS011;5379;51.034;7.006;2023-01-28T09:49:58;7.43;;;6.70;;
10661;SDS011;5379;51.034;7.006;2023-01-28T09:52:28;8.97;;;6.70;;
10661;SDS011;5379;51.034;7.006;2023-01-28T09:55:02;10.53;;;6.67;;
10661;SDS011;5379;51.034;7.006;2023-01-28T09:57:37;10.00;;;7.47;;
10661;SDS011;5379;51.034;7.006;2023-01-28T10:00:11;8.13;;;6.80;;
10661;SDS011;5379;51.034;7.006;2023-01-28T10:02:44;9.10;;;6.57;;
10661;SDS011;5379;51.034;7.006;2023-01-28T10:05:27;12.47;;;6.33;;
10661;SDS011;5379;51.034;7.006;2023-01-28T10:08:05;7.80;;;6.77;;
10661;SDS011;5379;51.034;7.006;2023-01-28T10:10:41;10.90;;;7.47;;
10661;SDS011;5379;51.034;7.006;2023-01-28T10:13:16;8.97;;;8.17;;
10661;SDS011;5379;51.034;7.006;2023-01-28T10:15:52;12.73;;;9.73;;
10661;SDS011;5379;51.034;7.006;2023-01-28T10:18:29;13.67;;;9.33;;
10661;SDS011;5379;51.034;7.006;2023-01-28T10:21:04;12.80;;;8.40;;
10661;SDS011;5379;51.034;7.006;2023-01-28T10:23:38;11.60;;;9.27;;
10661;SDS011;5379;51.034;7.006;2023-01-28T10:26:15;15.57;;;9.43;;
10661;SDS011;5379;51.034;7.006;2023-01-28T10:28:51;9.83;;;8.83;;
10661;SDS011;5379;51.034;7.006;2023-01-28T10:31:21;11.73;;;9.40;;
10661;SDS011;5379;51.034;7.006;2023-01-28T10:33:50;10.07;;;8.63;;
10661;SDS011;5379;51.034;7.006;2023-01-28T10:36:17;19.43;;;10.10;;
10661;SDS011;5379;51.034;7.006;2023-01-28T10:38:45;10.87;;;9.50;;
10661;SDS011;5379;51.034;7.006;2023-01-28T10:41:12;10.10;;;9.10;;
10661;SDS011;5379;51.034;7.006;2023-01-28T10:43:45;10.20;;;8.90;;
10661;SDS011;5379;51.034;7.006;2023-01-28T10:46:15;9.30;;;8.33;;
10661;SDS011;5379;51.034;7.006;2023-01-28T10:48:45;14.67;;;9.70;;
10661;SDS011;5379;51.034;7.006;2023-01-28T10:51:28;11.60;;;9.77;;
10661;SDS011;5379;51.034;7.006;2023-01-28T10:53:56;10.77;;;9.80;;
10661;SDS011;5379;51.034;7.006;2023-01-28T10:56:23;15.40;;;9.97;;
10661;SDS011;5379;51.034;7.006;2023-01-28T10:58:53;16.77;;;10.23;;
10661;SDS011;5379;51.034;7.006;2023-01-28T11:01:25;13.87;;;11.23;;
10661;SDS011;5379;51.034;7.006;2023-01-28T11:04:04;13.17;;;9.13;;
10661;SDS011;5379;51.034;7.006;2023-01-28T11:06:39;11.87;;;8.77;;
10661;SDS011;5379;51.034;7.006;2023-01-28T11:09:18;10.70;;;9.30;;
10661;SDS011;5379;51.034;7.006;2023-01-28T11:11:46;11.23;;;10.10;;
10661;SDS011;5379;51.034;7.006;2023-01-28T11:14:18;10.80;;;9.37;;
10661;SDS011;5379;51.034;7.006;2023-01-28T11:16:46;15.60;;;9.27;;
10661;SDS011;5379;51.034;7.006;2023-01-28T11:19:14;9.67;;;8.67;;
10661;SDS011;5379;51.034;7.006;2023-01-28T11:21:48;11.30;;;9.20;;
10661;SDS011;5379;51.034;7.006;2023-01-28T11:24:20;10.00;;;9.00;;
10661;SDS011;5379;51.034;7.006;2023-01-28T11:26:49;8.83;;;8.00;;
10661;SDS011;5379;51.034;7.006;2023-01-28T11:29:23;10.33;;;8.20;;
10661;SDS011;5379;51.034;7.006;2023-01-28T11:31:53;9.67;;;8.67;;
10661;SDS011;5379;51.034;7.006;2023-01-28T11:34:24;9.20;;;8.40;;
10661;SDS011;5379;51.034;7.006;2023-01-28T11:36:54;10.70;;;9.30;;
10661;SDS011;5379;51.034;7.006;2023-01-28T11:39:30;9.73;;;8.33;;
10661;SDS011;5379;51.034;7.006;2023-01-28T11:42:09;8.87;;;8.07;;
10661;SDS011;5379;51.034;7.006;2023-01-28T11:44:38;9.07;;;7.73;;
10661;SDS011;5379;51.034;7.006;2023-01-28T11:50:01;18.33;;;9.73;;
10661;SDS011;5379;51.034;7.006;2023-01-28T11:52:45;9.30;;;8.40;;
10661;SDS011;5379;51.034;7.006;2023-01-28T11:55:21;8.67;;;7.73;;
10661;SDS011;5379;51.034;7.006;2023-01-28T11:58:04;10.77;;;8.20;;
10661;SDS011;5379;51.034;7.006;2023-01-28T12:00:40;15.90;;;8.90;;
10661;SDS011;5379;51.034;7.006;2023-01-28T12:06:12;10.63;;;8.87;;
10661;SDS011;5379;51.034;7.006;2023-01-28T12:09:00;10.43;;;9.43;;
10661;SDS011;5379;51.034;7.006;2023-01-28T12:11:41;11.90;;;9.43;;
10661;SDS011;5379;51.034;7.006;2023-01-28T12:14:33;9.77;;;8.87;;
10661;SDS011;5379;51.034;7.006;2023-01-28T12:17:14;9.53;;;8.20;;
10661;SDS011;5379;51.034;7.006;2023-01-28T12:19:53;12.20;;;7.90;;
10661;SDS011;5379;51.034;7.006;2023-01-28T12:25:21;11.13;;;9.37;;
10661;SDS011;5379;51.034;7.006;2023-01-28T12:27:58;14.57;;;9.40;;
10661;SDS011;5379;51.034;7.006;2023-01-28T12:30:35;11.63;;;9.00;;
10661;SDS011;5379;51.034;7.006;2023-01-28T12:33:19;15.27;;;12.43;;
10661;SDS011;5379;51.034;7.006;2023-01-28T12:36:06;12.13;;;9.80;;
10661;SDS011;5379;51.034;7.006;2023-01-28T12:38:47;12.07;;;9.00;;
10661;SDS011;5379;51.034;7.006;2023-01-28T12:41:28;9.10;;;8.23;;
10661;SDS011;5379;51.034;7.006;2023-01-28T12:43:59;9.57;;;8.67;;
10661;SDS011;5379;51.034;7.006;2023-01-28T12:46:40;8.73;;;7.93;;
10661;SDS011;5379;51.034;7.006;2023-01-28T12:49:12;15.73;;;10.27;;
10661;SDS011;5379;51.034;7.006;2023-01-28T12:51:51;13.37;;;8.93;;
10661;SDS011;5379;51.034;7.006;2023-01-28T12:54:26;11.53;;;9.53;;
10661;SDS011;5379;51.034;7.006;2023-01-28T12:56:57;12.67;;;9.50;;
10661;SDS011;5379;51.034;7.006;2023-01-28T12:59:26;12.53;;;9.97;;
10661;SDS011;5379;51.034;7.006;2023-01-28T13:02:00;11.63;;;9.23;;
10661;SDS011;5379;51.034;7.006;2023-01-28T13:04:41;15.77;;;9.33;;
10661;SDS011;5379;51.034;7.006;2023-01-28T13:07:14;10.17;;;9.13;;
10661;SDS011;5379;51.034;7.006;2023-01-28T13:09:47;13.63;;;10.43;;
10661;SDS011;5379;51.034;7.006;2023-01-28T13:12:19;12.27;;;9.80;;
10661;SDS011;5379;51.034;7.006;2023-01-28T13:14:47;21.60;;;9.57;;
10661;SDS011;5379;51.034;7.006;2023-01-28T13:17:24;11.87;;;9.00;;
10661;SDS011;5379;51.034;7.006;2023-01-28T13:19:52;10.27;;;9.17;;
10661;SDS011;5379;51.034;7.006;2023-01-28T13:22:29;9.60;;;8.30;;
10661;SDS011;5379;51.034;7.006;2023-01-28T13:25:11;10.00;;;8.10;;
10661;SDS011;5379;51.034;7.006;2023-01-28T13:27:54;7.87;;;7.03;;
10661;SDS011;5379;51.034;7.006;2023-01-28T13:30:23;11.83;;;8.60;;
10661;SDS011;5379;51.034;7.006;2023-01-28T13:32:59;15.57;;;9.20;;
10661;SDS011;5379;51.034;7.006;2023-01-28T13:35:32;7.53;;;6.80;;
10661;SDS011;5379;51.034;7.006;2023-01-28T13:38:08;8.87;;;7.27;;
10661;SDS011;5379;51.034;7.006;2023-01-28T13:40:40;9.80;;;7.20;;
10661;SDS011;5379;51.034;7.006;2023-01-28T13:46:02;10.93;;;6.17;;
10661;SDS011;5379;51.034;7.006;2023-01-28T13:48:32;9.17;;;6.77;;
10661;SDS011;5379;51.034;7.006;2023-01-28T13:51:09;6.87;;;6.27;;
10661;SDS011;5379;51.034;7.006;2023-01-28T13:53:44;6.77;;;6.07;;
10661;SDS011;5379;51.034;7.006;2023-01-28T13:56:18;7.73;;;6.67;;
10661;SDS011;5379;51.034;7.006;2023-01-28T13:58:56;6.83;;;5.97;;
10661;SDS011;5379;51.034;7.006;2023-01-28T14:02:06;6.43;;;5.83;;
10661;SDS011;5379;51.034;7.006;2023-01-28T14:08:08;6.13;;;5.50;;
10661;SDS011;5379;51.034;7.006;2023-01-28T14:11:00;6.83;;;5.67;;
10661;SDS011;5379;51.034;7.006;2023-01-28T14:13:49;7.30;;;5.77;;
10661;SDS011;5379;51.034;7.006;2023-01-28T14:16:29;5.80;;;5.30;;
10661;SDS011;5379;51.034;7.006;2023-01-28T14:19:08;6.40;;;5.17;;
10661;SDS011;5379;51.034;7.006;2023-01-28T14:21:38;10.77;;;5.27;;
10661;SDS011;5379;51.034;7.006;2023-01-28T14:24:09;5.63;;;5.17;;
10661;SDS011;5379;51.034;7.006;2023-01-28T14:26:44;5.07;;;4.57;;
10661;SDS011;5379;51.034;7.006;2023-01-28T14:29:19;5.27;;;4.83;;
10661;SDS011;5379;51.034;7.006;2023-01-28T14:32:02;5.37;;;4.97;;
10661;SDS011;5379;51.034;7.006;2023-01-28T14:34:33;8.53;;;5.80;;
10661;SDS011;5379;51.034;7.006;2023-01-28T14:37:03;6.40;;;5.80;;
10661;SDS011;5379;51.034;7.006;2023-01-28T14:39:40;6.60;;;5.60;;
10661;SDS011;5379;51.034;7.006;2023-01-28T14:42:12;5.97;;;5.47;;
10661;SDS011;5379;51.034;7.006;2023-01-28T14:44:44;7.97;;;6.80;;
10661;SDS011;5379;51.034;7.006;2023-01-28T14:47:17;34.90;;;10.07;;
10661;SDS011;5379;51.034;7.006;2023-01-28T14:50:13;11.60;;;7.27;;
10661;SDS011;5379;51.034;7.006;2023-01-28T14:52:51;12.83;;;8.03;;
10661;SDS011;5379;51.034;7.006;2023-01-28T14:55:31;34.83;;;9.77;;
10661;SDS011;5379;51.034;7.006;2023-01-28T14:58:03;18.07;;;9.07;;
10661;SDS011;5379;51.034;7.006;2023-01-28T15:00:34;21.40;;;8.00;;
10661;SDS011;5379;51.034;7.006;2023-01-28T15:03:07;20.10;;;8.53;;
10661;SDS011;5379;51.034;7.006;2023-01-28T15:05:43;12.67;;;7.37;;
10661;SDS011;5379;51.034;7.006;2023-01-28T15:08:18;7.80;;;6.97;;
10661;SDS011;5379;51.034;7.006;2023-01-28T15:10:45;7.43;;;6.77;;
10661;SDS011;5379;51.034;7.006;2023-01-28T15:13:14;52.60;;;14.77;;
10661;SDS011;5379;51.034;7.006;2023-01-28T15:15:49;57.13;;;15.27;;
10661;SDS011;5379;51.034;7.006;2023-01-28T15:18:23;36.87;;;11.73;;
10661;SDS011;5379;51.034;7.006;2023-01-28T15:20:57;49.80;;;12.50;;
10661;SDS011;5379;51.034;7.006;2023-01-28T15:23:26;44.50;;;14.20;;
10661;SDS011;5379;51.034;7.006;2023-01-28T15:25:56;20.97;;;10.07;;
10661;SDS011;5379;51.034;7.006;2023-01-28T15:28:25;10.03;;;7.10;;
10661;SDS011;5379;51.034;7.006;2023-01-28T15:30:54;6.90;;;6.27;;
10661;SDS011;5379;51.034;7.006;2023-01-28T15:33:22;8.97;;;7.00;;
10661;SDS011;5379;51.034;7.006;2023-01-28T15:35:50;15.90;;;8.03;;
10661;SDS011;5379;51.034;7.006;2023-01-28T15:38:19;9.87;;;7.80;;
10661;SDS011;5379;51.034;7.006;2023-01-28T15:40:48;10.17;;;8.73;;
10661;SDS011;5379;51.034;7.006;2023-01-28T15:43:17;8.50;;;6.80;;
10661;SDS011;5379;51.034;7.006;2023-01-28T15:45:47;7.50;;;6.80;;
10661;SDS011;5379;51.034;7.006;2023-01-28T15:48:19;6.97;;;6.43;;
10661;SDS011;5379;51.034;7.006;2023-01-28T15:50:47;9.07;;;6.60;;
10661;SDS011;5379;51.034;7.006;2023-01-28T15:53:25;83.10;;;17.77;;
10661;SDS011;5379;51.034;7.006;2023-01-28T15:56:03;37.80;;;11.20;;
10661;SDS011;5379;51.034;7.006;2023-01-28T15:58:31;19.87;;;8.17;;
10661;SDS011;5379;51.034;7.006;2023-01-28T16:01:14;9.53;;;7.57;;
10661;SDS011;5379;51.034;7.006;2023-01-28T16:03:43;8.20;;;6.13;;
10661;SDS011;5379;51.034;7.006;2023-01-28T16:06:12;9.70;;;7.20;;
10661;SDS011;5379;51.034;7.006;2023-01-28T16:08:45;6.77;;;6.17;;
10661;SDS011;5379;51.034;7.006;2023-01-28T16:11:20;8.03;;;6.80;;
10661;SDS011;5379;51.034;7.006;2023-01-28T16:13:50;7.40;;;6.63;;
10661;SDS011;5379;51.034;7.006;2023-01-28T16:16:24;9.20;;;6.30;;
10661;SDS011;5379;51.034;7.006;2023-01-28T16:18:53;9.50;;;6.93;;
10661;SDS011;5379;51.034;7.006;2023-01-28T16:21:21;10.07;;;9.10;;
10661;SDS011;5379;51.034;7.006;2023-01-28T16:23:56;10.50;;;8.90;;
10661;SDS011;5379;51.034;7.006;2023-01-28T16:26:25;14.60;;;10.47;;
10661;SDS011;5379;51.034;7.006;2023-01-28T16:28:53;11.73;;;9.20;;
10661;SDS011;5379;51.034;7.006;2023-01-28T16:31:20;15.37;;;10.00;;
10661;SDS011;5379;51.034;7.006;2023-01-28T16:33:47;10.60;;;9.27;;
10661;SDS011;5379;51.034;7.006;2023-01-28T16:36:15;18.93;;;10.43;;
10661;SDS011;5379;51.034;7.006;2023-01-28T16:38:43;15.63;;;10.33;;
10661;SDS011;5379;51.034;7.006;2023-01-28T16:41:12;11.50;;;10.20;;
10661;SDS011;5379;51.034;7.006;2023-01-28T16:43:41;15.80;;;11.63;;
10661;SDS011;5379;51.034;7.006;2023-01-28T16:46:09;15.73;;;11.50;;
10661;SDS011;5379;51.034;7.006;2023-01-28T16:48:37;12.43;;;10.90;;
10661;SDS011;5379;51.034;7.006;2023-01-28T16:51:04;18.80;;;12.63;;
10661;SDS011;5379;51.034;7.006;2023-01-28T16:53:32;15.30;;;11.40;;
10661;SDS011;5379;51.034;7.006;2023-01-28T16:55:59;15.00;;;12.17;;
10661;SDS011;5379;51.034;7.006;2023-01-28T16:58:28;13.27;;;11.13;;
10661;SDS011;5379;51.034;7.006;2023-01-28T17:00:56;17.57;;;12.10;;
10661;SDS011;5379;51.034;7.006;2023-01-28T17:03:23;18.37;;;13.53;;
10661;SDS011;5379;51.034;7.006;2023-01-28T17:05:51;19.03;;;12.80;;
10661;SDS011;5379;51.034;7.006;2023-01-28T17:08:18;16.53;;;11.70;;
10661;SDS011;5379;51.034;7.006;2023-01-28T17:10:45;12.90;;;11.53;;
10661;SDS011;5379;51.034;7.006;2023-01-28T17:13:17;13.20;;;11.53;;
10661;SDS011;5379;51.034;7.006;2023-01-28T17:15:45;14.93;;;11.60;;
10661;SDS011;5379;51.034;7.006;2023-01-28T17:18:12;13.93;;;12.43;;
10661;SDS011;5379;51.034;7.006;2023-01-28T17:20:39;19.10;;;13.13;;
10661;SDS011;5379;51.034;7.006;2023-01-28T17:23:06;18.90;;;13.53;;
10661;SDS011;5379;51.034;7.006;2023-01-28T17:25:35;14.93;;;12.50;;
10661;SDS011;5379;51.034;7.006;2023-01-28T17:28:03;17.83;;;12.40;;
10661;SDS011;5379;51.034;7.006;2023-01-28T17:30:30;16.10;;;12.57;;
10661;SDS011;5379;51.034;7.006;2023-01-28T17:32:58;16.37;;;12.63;;
10661;SDS011;5379;51.034;7.006;2023-01-28T17:35:25;20.23;;;13.47;;
10661;SDS011;5379;51.034;7.006;2023-01-28T17:37:53;22.37;;;12.43;;
10661;SDS011;5379;51.034;7.006;2023-01-28T17:40:20;18.87;;;12.57;;
10661;SDS011;5379;51.034;7.006;2023-01-28T17:42:47;13.60;;;12.10;;
10661;SDS011;5379;51.034;7.006;2023-01-28T17:45:14;13.87;;;12.33;;
10661;SDS011;5379;51.034;7.006;2023-01-28T17:47:42;14.87;;;13.27;;
10661;SDS011;5379;51.034;7.006;2023-01-28T17:50:10;20.23;;;14.70;;
10661;SDS011;5379;51.034;7.006;2023-01-28T17:52:37;17.57;;;14.50;;
10661;SDS011;5379;51.034;7.006;2023-01-28T17:55:05;15.13;;;12.50;;
10661;SDS011;5379;51.034;7.006;2023-01-28T17:57:33;15.90;;;13.40;;
10661;SDS011;5379;51.034;7.006;2023-01-28T18:00:00;18.07;;;14.60;;
10661;SDS011;5379;51.034;7.006;2023-01-28T18:02:27;14.63;;;13.13;;
10661;SDS011;5379;51.034;7.006;2023-01-28T18:04:54;17.83;;;13.70;;
10661;SDS011;5379;51.034;7.006;2023-01-28T18:07:22;15.20;;;13.60;;
10661;SDS011;5379;51.034;7.006;2023-01-28T18:09:49;20.70;;;15.33;;
10661;SDS011;5379;51.034;7.006;2023-01-28T18:12:16;19.37;;;13.80;;
10661;SDS011;5379;51.034;7.006;2023-01-28T18:14:43;23.73;;;15.00;;
10661;SDS011;5379;51.034;7.006;2023-01-28T18:17:10;20.57;;;16.27;;
10661;SDS011;5379;51.034;7.006;2023-01-28T18:19:37;22.90;;;17.43;;
10661;SDS011;5379;51.034;7.006;2023-01-28T18:22:04;19.33;;;16.27;;
10661;SDS011;5379;51.034;7.006;2023-01-28T18:24:33;20.70;;;15.30;;
10661;SDS011;5379;51.034;7.006;2023-01-28T18:27:00;21.60;;;14.57;;
10661;SDS011;5379;51.034;7.006;2023-01-28T18:29:28;20.47;;;16.47;;
10661;SDS011;5379;51.034;7.006;2023-01-28T18:31:56;24.10;;;16.13;;
10661;SDS011;5379;51.034;7.006;2023-01-28T18:34:24;32.17;;;19.07;;
10661;SDS011;5379;51.034;7.006;2023-01-28T18:36:53;27.07;;;17.80;;
10661;SDS011;5379;51.034;7.006;2023-01-28T18:39:21;25.60;;;18.83;;
10661;SDS011;5379;51.034;7.006;2023-01-28T18:41:52;28.13;;;17.07;;
10661;SDS011;5379;51.034;7.006;2023-01-28T18:44:20;21.20;;;17.50;;
10661;SDS011;5379;51.034;7.006;2023-01-28T18:46:48;27.63;;;18.67;;
10661;SDS011;5379;51.034;7.006;2023-01-28T18:49:15;25.40;;;18.30;;
10661;SDS011;5379;51.034;7.006;2023-01-28T18:51:42;26.07;;;16.50;;
10661;SDS011;5379;51.034;7.006;2023-01-28T18:54:09;20.07;;;16.57;;
10661;SDS011;5379;51.034;7.006;2023-01-28T18:56:39;19.67;;;17.07;;
10661;SDS011;5379;51.034;7.006;2023-01-28T18:59:09;24.43;;;17.93;;
10661;SDS011;5379;51.034;7.006;2023-01-28T19:01:37;22.27;;;18.37;;
10661;SDS011;5379;51.034;7.006;2023-01-28T19:04:06;29.13;;;18.17;;
10661;SDS011;5379;51.034;7.006;2023-01-28T19:06:34;22.67;;;16.87;;
10661;SDS011;5379;51.034;7.006;2023-01-28T19:09:02;21.80;;;16.60;;
10661;SDS011;5379;51.034;7.006;2023-01-28T19:11:31;23.60;;;16.93;;
10661;SDS011;5379;51.034;7.006;2023-01-28T19:13:59;23.87;;;17.27;;
10661;SDS011;5379;51.034;7.006;2023-01-28T19:16:28;28.30;;;18.00;;
10661;SDS011;5379;51.034;7.006;2023-01-28T19:18:55;20.93;;;17.23;;
10661;SDS011;5379;51.034;7.006;2023-01-28T19:21:24;24.40;;;18.07;;
10661;SDS011;5379;51.034;7.006;2023-01-28T19:23:55;23.03;;;18.33;;
10661;SDS011;5379;51.034;7.006;2023-01-28T19:26:24;28.30;;;19.50;;
10661;SDS011;5379;51.034;7.006;2023-01-28T19:28:52;26.73;;;19.77;;
10661;SDS011;5379;51.034;7.006;2023-01-28T19:31:19;23.30;;;19.23;;
10661;SDS011;5379;51.034;7.006;2023-01-28T19:33:51;25.33;;;18.90;;
10661;SDS011;5379;51.034;7.006;2023-01-28T19:36:19;21.07;;;17.97;;
10661;SDS011;5379;51.034;7.006;2023-01-28T19:38:46;30.73;;;20.10;;
10661;SDS011;5379;51.034;7.006;2023-01-28T19:41:13;24.50;;;18.70;;
10661;SDS011;5379;51.034;7.006;2023-01-28T19:43:41;22.60;;;17.87;;
10661;SDS011;5379;51.034;7.006;2023-01-28T19:46:11;27.77;;;19.90;;
10661;SDS011;5379;51.034;7.006;2023-01-28T19:48:40;25.37;;;18.97;;
10661;SDS011;5379;51.034;7.006;2023-01-28T19:51:09;29.47;;;19.57;;
10661;SDS011;5379;51.034;7.006;2023-01-28T19:53:37;31.83;;;18.30;;